Time;durP1;ratioP1;P1;durP2;ratioP2;P2;SDS_P1;SDS_P2;PMS_P1;PMS_P2;Temp;Humidity;BMP_temperature;BMP_pressure;BME280_temperature;BME280_humidity;BME280_pressure;Samples;Min_cycle;Max_cycle;Signal;HPM_P1;HPM_P2
2023/11/24 00:00:35;;;;;;;35.20;6.50;;;;;;;;;;5096714;28;20407;-60
2023/11/24 00:03:01;;;;;;;35.42;7.32;;;;;;;;;;5095485;28;20036;-60
2023/11/24 00:05:27;;;;;;;32.72;5.57;;;;;;;;;;5092113;28;20047;-60
2023/11/24 00:07:54;;;;;;;35.22;5.53;;;;;;;;;;5103600;28;20422;-60
2023/11/24 00:10:20;;;;;;;30.10;5.18;;;;;;;;;;5113048;28;20039;-60
2023/11/24 00:12:46;;;;;;;26.45;4.10;;;;;;;;;;5102683;28;20078;-60
2023/11/24 00:15:12;;;;;;;25.08;3.67;;;;;;;;;;5110544;28;20075;-60
2023/11/24 00:17:39;;;;;;;18.15;3.05;;;;;;;;;;5106405;28;20043;-60
2023/11/24 00:20:08;;;;;;;22.48;4.78;;;;;;;;;;5105101;28;20096;-60
2023/11/24 00:22:34;;;;;;;22.35;3.40;;;;;;;;;;5099057;27;20123;-60
2023/11/24 00:25:00;;;;;;;24.70;3.58;;;;;;;;;;5098012;27;20093;-60
2023/11/24 00:27:27;;;;;;;22.70;2.80;;;;;;;;;;5093376;28;20074;-61
2023/11/24 00:29:53;;;;;;;27.67;4.97;;;;;;;;;;5098178;28;20048;-60
2023/11/24 00:32:20;;;;;;;25.45;3.65;;;;;;;;;;5098111;28;20484;-60
2023/11/24 00:34:46;;;;;;;30.90;4.80;;;;;;;;;;5096273;28;20442;-60
2023/11/24 00:37:13;;;;;;;31.73;5.20;;;;;;;;;;5089342;28;20399;-60
2023/11/24 00:39:39;;;;;;;36.63;6.05;;;;;;;;;;5102352;28;20463;-60
2023/11/24 00:42:07;;;;;;;31.13;5.55;;;;;;;;;;5104485;28;20482;-60
2023/11/24 00:44:33;;;;;;;25.95;4.55;;;;;;;;;;5078549;27;20430;-60
2023/11/24 00:47:00;;;;;;;29.42;5.43;;;;;;;;;;5103335;27;20069;-60
2023/11/24 00:49:26;;;;;;;22.70;3.83;;;;;;;;;;5098452;28;20476;-60
2023/11/24 00:51:52;;;;;;;29.25;5.22;;;;;;;;;;5105726;28;20036;-60
2023/11/24 00:54:18;;;;;;;28.25;4.05;;;;;;;;;;5101988;28;20046;-60
2023/11/24 00:56:44;;;;;;;37.20;4.13;;;;;;;;;;5097203;28;20040;-61
2023/11/24 00:59:11;;;;;;;35.75;4.35;;;;;;;;;;5108502;28;20035;-60
2023/11/24 01:01:37;;;;;;;24.10;4.28;;;;;;;;;;5100126;27;20044;-60
2023/11/24 01:04:04;;;;;;;24.73;4.90;;;;;;;;;;5091397;28;20046;-60
2023/11/24 01:06:30;;;;;;;15.60;3.63;;;;;;;;;;5092421;28;20046;-60
2023/11/24 01:08:56;;;;;;;29.55;4.18;;;;;;;;;;5095845;28;20040;-60
2023/11/24 01:11:23;;;;;;;32.22;4.80;;;;;;;;;;5110074;28;20051;-60
2023/11/24 01:13:49;;;;;;;27.52;4.43;;;;;;;;;;5098526;28;20031;-61
2023/11/24 01:16:15;;;;;;;26.38;4.03;;;;;;;;;;5106224;28;20535;-60
2023/11/24 01:18:41;;;;;;;17.63;2.47;;;;;;;;;;5111722;28;20368;-60
2023/11/24 01:21:08;;;;;;;11.63;1.70;;;;;;;;;;5100695;28;20480;-60
2023/11/24 01:23:35;;;;;;;13.57;2.35;;;;;;;;;;5098922;28;20051;-60
2023/11/24 01:26:02;;;;;;;9.27;1.60;;;;;;;;;;5103143;28;20056;-60
2023/11/24 01:28:28;;;;;;;12.10;1.63;;;;;;;;;;5097611;27;20051;-60
2023/11/24 01:30:54;;;;;;;17.00;2.90;;;;;;;;;;5100612;28;20170;-60
2023/11/24 01:33:20;;;;;;;9.15;1.55;;;;;;;;;;5097191;27;20044;-60
2023/11/24 01:35:49;;;;;;;15.55;2.08;;;;;;;;;;5099897;28;20055;-60
2023/11/24 01:38:15;;;;;;;12.90;2.15;;;;;;;;;;5106253;28;20035;-60
2023/11/24 01:40:41;;;;;;;12.00;2.65;;;;;;;;;;5103406;28;20040;-60
2023/11/24 01:43:08;;;;;;;13.10;2.22;;;;;;;;;;5103254;28;20121;-60
2023/11/24 01:45:34;;;;;;;22.70;2.90;;;;;;;;;;5101045;28;20047;-60
2023/11/24 01:48:00;;;;;;;15.52;2.30;;;;;;;;;;5098145;28;20507;-60
2023/11/24 01:50:26;;;;;;;19.38;2.50;;;;;;;;;;5100646;28;20035;-60
2023/11/24 01:52:53;;;;;;;20.15;2.88;;;;;;;;;;5095777;28;20040;-60
2023/11/24 01:55:23;;;;;;;18.45;2.72;;;;;;;;;;5100234;28;20437;-60
2023/11/24 01:57:49;;;;;;;20.85;2.38;;;;;;;;;;5101669;28;20059;-60
2023/11/24 02:00:16;;;;;;;20.90;3.95;;;;;;;;;;5092972;28;20526;-60
2023/11/24 02:02:42;;;;;;;13.57;2.72;;;;;;;;;;5095176;28;20440;-60
2023/11/24 02:05:09;;;;;;;17.88;2.63;;;;;;;;;;5099187;28;20047;-60
2023/11/24 02:07:35;;;;;;;26.15;2.97;;;;;;;;;;5095205;28;20036;-60
2023/11/24 02:10:01;;;;;;;15.40;3.90;;;;;;;;;;5094239;28;20515;-60
2023/11/24 02:12:28;;;;;;;18.63;3.50;;;;;;;;;;5092448;28;20044;-60
2023/11/24 02:14:54;;;;;;;14.75;3.33;;;;;;;;;;5101979;27;20043;-61
2023/11/24 02:17:20;;;;;;;18.48;4.30;;;;;;;;;;5100419;28;20064;-60
2023/11/24 02:19:46;;;;;;;17.55;2.72;;;;;;;;;;5098284;28;20047;-60
2023/11/24 02:22:12;;;;;;;19.63;2.88;;;;;;;;;;5099309;28;20088;-60
2023/11/24 02:24:39;;;;;;;23.35;3.17;;;;;;;;;;5099765;28;20040;-60
2023/11/24 02:27:07;;;;;;;22.15;3.78;;;;;;;;;;5102535;28;20040;-61
2023/11/24 02:29:33;;;;;;;14.60;2.05;;;;;;;;;;5096951;28;20040;-61
2023/11/24 02:31:59;;;;;;;16.63;3.70;;;;;;;;;;5107462;28;20044;-60
2023/11/24 02:34:28;;;;;;;16.98;2.47;;;;;;;;;;5101629;28;20119;-60
2023/11/24 02:36:54;;;;;;;13.25;2.60;;;;;;;;;;5109496;28;20083;-60
2023/11/24 02:39:22;;;;;;;18.58;2.78;;;;;;;;;;5106972;28;20044;-60
2023/11/24 02:41:48;;;;;;;19.63;2.78;;;;;;;;;;5107653;28;20114;-60
2023/11/24 02:44:14;;;;;;;16.23;3.65;;;;;;;;;;5104050;28;20035;-60
2023/11/24 02:46:41;;;;;;;17.15;2.40;;;;;;;;;;5089463;28;20055;-60
2023/11/24 02:49:07;;;;;;;24.35;3.55;;;;;;;;;;5104148;28;20514;-60
2023/11/24 02:51:33;;;;;;;16.63;2.20;;;;;;;;;;5090098;28;20047;-60
2023/11/24 02:53:59;;;;;;;21.02;3.75;;;;;;;;;;5101859;28;20491;-60
2023/11/24 02:56:26;;;;;;;16.13;3.15;;;;;;;;;;5104034;28;20043;-60
2023/11/24 02:58:52;;;;;;;12.00;1.80;;;;;;;;;;5106898;28;20054;-60
2023/11/24 03:01:18;;;;;;;13.27;2.05;;;;;;;;;;5101111;28;20051;-60
2023/11/24 03:03:44;;;;;;;14.38;2.92;;;;;;;;;;5106369;28;20084;-60
2023/11/24 03:06:12;;;;;;;8.48;1.70;;;;;;;;;;5104778;28;20040;-60
2023/11/24 03:08:39;;;;;;;13.57;2.55;;;;;;;;;;5097593;28;20169;-60
2023/11/24 03:11:06;;;;;;;17.45;3.65;;;;;;;;;;5105604;28;20394;-60
2023/11/24 03:13:33;;;;;;;19.42;2.83;;;;;;;;;;5104957;28;20160;-60
2023/11/24 03:16:00;;;;;;;14.30;2.85;;;;;;;;;;5097624;28;20044;-60
2023/11/24 03:18:26;;;;;;;14.15;2.25;;;;;;;;;;5089944;27;20117;-60
2023/11/24 03:20:52;;;;;;;17.65;2.90;;;;;;;;;;5101934;28;20491;-60
2023/11/24 03:23:18;;;;;;;12.20;2.50;;;;;;;;;;5100186;28;20429;-60
2023/11/24 03:25:44;;;;;;;12.13;2.40;;;;;;;;;;5099757;28;20080;-60
2023/11/24 03:28:12;;;;;;;12.20;2.13;;;;;;;;;;5101932;28;20070;-60
2023/11/24 03:30:38;;;;;;;12.27;2.00;;;;;;;;;;5111567;28;20044;-60
2023/11/24 03:33:04;;;;;;;16.30;2.40;;;;;;;;;;5103762;28;20093;-60
2023/11/24 03:35:31;;;;;;;12.93;2.40;;;;;;;;;;5099992;28;20110;-60
2023/11/24 03:37:57;;;;;;;20.38;2.90;;;;;;;;;;5113496;28;20039;-60
2023/11/24 03:40:24;;;;;;;10.10;2.40;;;;;;;;;;5101957;28;20181;-60
2023/11/24 03:42:51;;;;;;;9.15;2.20;;;;;;;;;;5105662;28;20062;-60
2023/11/24 03:45:17;;;;;;;15.40;3.80;;;;;;;;;;5114557;28;20411;-60
2023/11/24 03:47:44;;;;;;;23.02;2.72;;;;;;;;;;5110619;28;20048;-60
2023/11/24 03:50:13;;;;;;;16.70;2.50;;;;;;;;;;5102915;28;20127;-60
2023/11/24 03:52:40;;;;;;;13.90;2.03;;;;;;;;;;5109157;28;20466;-60
2023/11/24 03:55:07;;;;;;;20.80;2.42;;;;;;;;;;5113526;28;20051;-60
2023/11/24 03:57:33;;;;;;;29.80;3.20;;;;;;;;;;5101074;28;20067;-60
2023/11/24 04:00:00;;;;;;;10.25;1.98;;;;;;;;;;5113997;28;20148;-60
2023/11/24 04:02:26;;;;;;;10.77;1.42;;;;;;;;;;5094937;28;20043;-60
2023/11/24 04:04:52;;;;;;;7.32;1.20;;;;;;;;;;5113689;28;20093;-60
2023/11/24 04:07:18;;;;;;;7.88;2.28;;;;;;;;;;5107933;27;20082;-60
2023/11/24 04:09:45;;;;;;;8.10;1.27;;;;;;;;;;5112901;28;20079;-60
2023/11/24 04:12:11;;;;;;;12.00;1.95;;;;;;;;;;5114144;28;20043;-60
2023/11/24 04:14:37;;;;;;;14.65;1.75;;;;;;;;;;5114019;28;20092;-60
2023/11/24 04:17:03;;;;;;;11.13;1.90;;;;;;;;;;5105157;28;20094;-60
2023/11/24 04:19:29;;;;;;;19.25;2.67;;;;;;;;;;5113667;28;20058;-60
2023/11/24 04:21:55;;;;;;;19.63;2.53;;;;;;;;;;5102317;28;20047;-60
2023/11/24 04:24:23;;;;;;;14.80;2.45;;;;;;;;;;5110218;28;20047;-60
2023/11/24 04:26:49;;;;;;;15.85;2.00;;;;;;;;;;5109871;28;20116;-60
2023/11/24 04:29:15;;;;;;;13.32;1.88;;;;;;;;;;5111820;28;20503;-60
2023/11/24 04:31:42;;;;;;;14.15;2.70;;;;;;;;;;5098411;28;20127;-60
2023/11/24 04:34:08;;;;;;;15.05;3.10;;;;;;;;;;5112946;28;20514;-60
2023/11/24 04:36:35;;;;;;;11.75;2.33;;;;;;;;;;5097116;28;20035;-60
2023/11/24 04:39:02;;;;;;;9.52;1.67;;;;;;;;;;5103943;28;20036;-60
2023/11/24 04:41:29;;;;;;;8.15;2.00;;;;;;;;;;5111839;28;20112;-60
2023/11/24 04:43:55;;;;;;;10.95;1.88;;;;;;;;;;5102613;28;20079;-60
2023/11/24 04:46:21;;;;;;;9.48;1.77;;;;;;;;;;5110801;28;20051;-60
2023/11/24 04:48:48;;;;;;;11.07;2.10;;;;;;;;;;5107300;28;20127;-60
2023/11/24 04:51:14;;;;;;;16.15;2.08;;;;;;;;;;5111575;28;20558;-60
2023/11/24 04:53:40;;;;;;;29.55;2.22;;;;;;;;;;5113325;28;20054;-60
2023/11/24 04:56:06;;;;;;;10.63;2.17;;;;;;;;;;5112695;28;20040;-60
2023/11/24 04:58:33;;;;;;;16.80;2.92;;;;;;;;;;5104588;28;20506;-60
2023/11/24 05:00:59;;;;;;;11.77;2.83;;;;;;;;;;5112544;28;20054;-60
2023/11/24 05:03:25;;;;;;;17.42;2.17;;;;;;;;;;5094826;28;20130;-60
2023/11/24 05:05:51;;;;;;;17.75;3.83;;;;;;;;;;5111235;27;20063;-60
2023/11/24 05:08:17;;;;;;;19.55;2.00;;;;;;;;;;5104358;28;20078;-60
2023/11/24 05:10:43;;;;;;;11.63;1.52;;;;;;;;;;5112950;28;20132;-60
2023/11/24 05:13:09;;;;;;;14.63;1.92;;;;;;;;;;5111904;28;20177;-60
2023/11/24 05:15:36;;;;;;;10.73;1.35;;;;;;;;;;5112629;28;20046;-60
2023/11/24 05:18:04;;;;;;;9.38;1.65;;;;;;;;;;5102422;28;20387;-60
2023/11/24 05:20:30;;;;;;;12.02;1.15;;;;;;;;;;5110644;28;20057;-60
2023/11/24 05:22:56;;;;;;;13.60;1.13;;;;;;;;;;5105863;28;20088;-60
2023/11/24 05:25:22;;;;;;;9.48;1.42;;;;;;;;;;5112557;28;20506;-60
2023/11/24 05:27:48;;;;;;;10.07;1.23;;;;;;;;;;5110403;28;20039;-60
2023/11/24 05:30:15;;;;;;;10.05;1.95;;;;;;;;;;5110658;28;20083;-60
2023/11/24 05:32:44;;;;;;;13.38;3.05;;;;;;;;;;5099825;28;20040;-60
2023/11/24 05:35:10;;;;;;;17.85;4.18;;;;;;;;;;5106656;27;20472;-60
2023/11/24 05:37:36;;;;;;;11.00;1.95;;;;;;;;;;5106194;28;20438;-60
2023/11/24 05:40:05;;;;;;;11.70;2.00;;;;;;;;;;5077060;28;20048;-60
2023/11/24 05:42:32;;;;;;;16.02;2.95;;;;;;;;;;5111415;28;20040;-60
2023/11/24 05:44:58;;;;;;;12.02;2.10;;;;;;;;;;5111019;28;20035;-60
2023/11/24 05:47:24;;;;;;;14.60;2.45;;;;;;;;;;5111077;28;20059;-60
2023/11/24 05:49:52;;;;;;;25.85;3.22;;;;;;;;;;5107137;28;20395;-60
2023/11/24 05:52:20;;;;;;;18.90;2.45;;;;;;;;;;5106096;28;20046;-60
2023/11/24 05:54:46;;;;;;;11.77;2.33;;;;;;;;;;5108345;28;20400;-60
2023/11/24 05:57:12;;;;;;;14.30;1.90;;;;;;;;;;5107625;28;20483;-60
2023/11/24 05:59:39;;;;;;;15.05;2.45;;;;;;;;;;5111460;28;20113;-60
2023/11/24 06:02:05;;;;;;;11.43;1.73;;;;;;;;;;5103041;28;20419;-60
2023/11/24 06:04:31;;;;;;;20.10;3.42;;;;;;;;;;5101307;28;20155;-61
2023/11/24 06:06:57;;;;;;;14.95;2.25;;;;;;;;;;5104867;28;20069;-60
2023/11/24 06:09:24;;;;;;;19.05;2.22;;;;;;;;;;5096914;28;20161;-60
2023/11/24 06:11:50;;;;;;;15.15;2.10;;;;;;;;;;5094270;28;20051;-61
2023/11/24 06:14:16;;;;;;;18.60;2.42;;;;;;;;;;5092545;28;20119;-60
2023/11/24 06:16:42;;;;;;;19.55;3.28;;;;;;;;;;5099064;28;20046;-60
2023/11/24 06:19:09;;;;;;;15.73;2.15;;;;;;;;;;5091396;28;20036;-60
2023/11/24 06:21:35;;;;;;;16.67;2.60;;;;;;;;;;5094911;28;20036;-61
2023/11/24 06:24:02;;;;;;;16.50;2.72;;;;;;;;;;5094897;28;20054;-61
2023/11/24 06:26:30;;;;;;;14.00;2.20;;;;;;;;;;5094669;28;20462;-60
2023/11/24 06:28:57;;;;;;;17.40;2.75;;;;;;;;;;5101743;28;20565;-60
2023/11/24 06:31:23;;;;;;;18.42;2.28;;;;;;;;;;5091638;28;20036;-60
2023/11/24 06:33:49;;;;;;;15.50;2.85;;;;;;;;;;5108064;28;20491;-60
2023/11/24 06:36:15;;;;;;;15.98;4.22;;;;;;;;;;5092917;28;20441;-61
2023/11/24 06:38:42;;;;;;;14.05;2.17;;;;;;;;;;5110417;28;20043;-60
2023/11/24 06:41:09;;;;;;;17.25;2.20;;;;;;;;;;5108949;28;20051;-60
2023/11/24 06:43:35;;;;;;;11.70;1.73;;;;;;;;;;5100394;28;20043;-60
2023/11/24 06:46:02;;;;;;;14.35;2.67;;;;;;;;;;5110917;28;20044;-60
2023/11/24 06:48:29;;;;;;;17.95;2.45;;;;;;;;;;5101307;28;20052;-60
2023/11/24 06:50:55;;;;;;;22.80;2.60;;;;;;;;;;5109590;28;20194;-61
2023/11/24 06:53:21;;;;;;;14.75;1.92;;;;;;;;;;5110661;28;20119;-60
2023/11/24 06:55:47;;;;;;;18.30;2.70;;;;;;;;;;5106214;28;20051;-60
2023/11/24 06:58:14;;;;;;;22.20;3.83;;;;;;;;;;5100091;28;20146;-61
2023/11/24 07:00:40;;;;;;;17.10;2.83;;;;;;;;;;5109025;28;20047;-60
2023/11/24 07:03:07;;;;;;;20.27;2.78;;;;;;;;;;5090019;28;20048;-61
2023/11/24 07:05:33;;;;;;;19.00;3.30;;;;;;;;;;5107750;28;20039;-60
2023/11/24 07:07:59;;;;;;;12.25;1.67;;;;;;;;;;5095258;28;20043;-60
2023/11/24 07:10:26;;;;;;;12.00;1.90;;;;;;;;;;5098861;28;20495;-61
2023/11/24 07:12:52;;;;;;;13.23;2.13;;;;;;;;;;5103493;28;20059;-60
2023/11/24 07:15:18;;;;;;;20.85;2.63;;;;;;;;;;5110948;28;20050;-60
2023/11/24 07:17:45;;;;;;;23.33;3.03;;;;;;;;;;5104167;28;20047;-60
2023/11/24 07:20:11;;;;;;;24.25;3.33;;;;;;;;;;5110276;28;20415;-60
2023/11/24 07:22:38;;;;;;;15.57;3.13;;;;;;;;;;5101789;28;20483;-61
2023/11/24 07:25:06;;;;;;;15.80;2.33;;;;;;;;;;5085406;28;20498;-61
2023/11/24 07:27:32;;;;;;;29.98;3.10;;;;;;;;;;5103357;28;20468;-61
2023/11/24 07:29:58;;;;;;;15.20;2.55;;;;;;;;;;5106858;28;20512;-60
2023/11/24 07:32:27;;;;;;;17.85;3.53;;;;;;;;;;5102257;28;20039;-60
2023/11/24 07:34:53;;;;;;;19.52;2.95;;;;;;;;;;5083061;28;20048;-61
2023/11/24 07:37:19;;;;;;;13.40;2.40;;;;;;;;;;5116759;28;20369;-60
2023/11/24 07:39:46;;;;;;;12.00;2.08;;;;;;;;;;5097840;28;20131;-61
2023/11/24 07:42:12;;;;;;;12.35;1.95;;;;;;;;;;5075039;28;20488;-60
2023/11/24 07:44:38;;;;;;;13.45;2.72;;;;;;;;;;5101396;28;20384;-61
2023/11/24 07:47:05;;;;;;;20.25;1.92;;;;;;;;;;5102886;28;20787;-61
2023/11/24 07:49:32;;;;;;;12.90;2.70;;;;;;;;;;5108825;28;20052;-60
2023/11/24 07:52:00;;;;;;;12.85;1.33;;;;;;;;;;5110645;28;20043;-61
2023/11/24 07:54:27;;;;;;;12.20;1.50;;;;;;;;;;5109607;28;20047;-60
2023/11/24 07:56:53;;;;;;;12.02;1.58;;;;;;;;;;5106398;28;20054;-61
2023/11/24 07:59:19;;;;;;;13.02;1.50;;;;;;;;;;5103687;28;20040;-60
2023/11/24 08:01:45;;;;;;;10.80;2.20;;;;;;;;;;5101211;28;20035;-60
2023/11/24 08:04:12;;;;;;;21.88;2.70;;;;;;;;;;5110330;28;20054;-60
2023/11/24 08:06:38;;;;;;;13.10;2.60;;;;;;;;;;5113600;28;20067;-60
2023/11/24 08:09:08;;;;;;;19.02;3.53;;;;;;;;;;5109155;28;20051;-60
2023/11/24 08:11:34;;;;;;;28.77;3.92;;;;;;;;;;5112726;27;20069;-61
2023/11/24 08:14:01;;;;;;;14.05;2.72;;;;;;;;;;5102516;28;20063;-61
2023/11/24 08:16:27;;;;;;;13.93;2.30;;;;;;;;;;5099023;28;20036;-60
2023/11/24 08:18:53;;;;;;;15.60;3.13;;;;;;;;;;5102321;28;20119;-60
2023/11/24 08:21:20;;;;;;;17.00;2.97;;;;;;;;;;5102288;28;20063;-60
2023/11/24 08:23:46;;;;;;;25.92;4.03;;;;;;;;;;5103291;28;20044;-60
2023/11/24 08:26:17;;;;;;;23.02;3.55;;;;;;;;;;5102981;28;20125;-61
2023/11/24 08:28:44;;;;;;;22.75;3.00;;;;;;;;;;5101118;27;20048;-61
2023/11/24 08:31:20;;;;;;;18.67;3.88;;;;;;;;;;5102916;27;20060;-60
2023/11/24 08:33:46;;;;;;;19.77;4.10;;;;;;;;;;5113441;28;20039;-66
2023/11/24 08:36:13;;;;;;;22.13;3.42;;;;;;;;;;5093081;28;20130;-60
2023/11/24 08:38:40;;;;;;;23.90;3.15;;;;;;;;;;5107618;28;20093;-61
2023/11/24 08:41:10;;;;;;;26.27;3.17;;;;;;;;;;5100390;28;20059;-61
2023/11/24 08:43:37;;;;;;;25.42;3.80;;;;;;;;;;5111730;28;20106;-61
2023/11/24 08:46:03;;;;;;;19.15;3.22;;;;;;;;;;5113188;28;20131;-61
2023/11/24 08:48:32;;;;;;;19.48;3.13;;;;;;;;;;5112039;27;20044;-61
2023/11/24 08:50:58;;;;;;;26.15;3.13;;;;;;;;;;5110371;28;20043;-60
2023/11/24 08:53:25;;;;;;;22.10;3.33;;;;;;;;;;5111340;28;20117;-60
2023/11/24 08:55:51;;;;;;;24.92;3.30;;;;;;;;;;5112980;28;20513;-60
2023/11/24 08:58:18;;;;;;;15.68;2.67;;;;;;;;;;5112039;28;20060;-60
2023/11/24 09:00:45;;;;;;;19.83;2.97;;;;;;;;;;5111571;28;20225;-60
2023/11/24 09:03:12;;;;;;;16.55;2.72;;;;;;;;;;5111639;28;20043;-61
2023/11/24 09:05:41;;;;;;;13.02;2.35;;;;;;;;;;5107149;28;20043;-60
2023/11/24 09:08:07;;;;;;;24.00;3.33;;;;;;;;;;5106738;28;20051;-60
2023/11/24 09:10:33;;;;;;;20.90;3.63;;;;;;;;;;5112888;28;20051;-60
2023/11/24 09:13:00;;;;;;;19.02;3.17;;;;;;;;;;5110723;28;20435;-60
2023/11/24 09:15:26;;;;;;;22.75;3.00;;;;;;;;;;5112412;28;20040;-60
2023/11/24 09:17:53;;;;;;;20.13;3.70;;;;;;;;;;5111093;28;20036;-60
2023/11/24 09:20:19;;;;;;;21.92;3.17;;;;;;;;;;5093501;28;20051;-61
2023/11/24 09:22:46;;;;;;;22.48;3.00;;;;;;;;;;5112543;28;20036;-60
2023/11/24 09:25:14;;;;;;;17.08;3.03;;;;;;;;;;5111897;28;20521;-60
2023/11/24 09:27:41;;;;;;;17.05;2.83;;;;;;;;;;5105557;28;20052;-61
2023/11/24 09:30:10;;;;;;;19.83;3.30;;;;;;;;;;5108163;28;20511;-60
2023/11/24 09:32:39;;;;;;;20.05;3.50;;;;;;;;;;5098292;28;20032;-61
2023/11/24 09:35:06;;;;;;;20.63;3.38;;;;;;;;;;5112336;28;20048;-60
2023/11/24 09:37:35;;;;;;;25.10;3.70;;;;;;;;;;5112155;28;20044;-60
2023/11/24 09:40:12;;;;;;;21.52;4.88;;;;;;;;;;5103085;28;20040;-60
2023/11/24 09:42:40;;;;;;;19.38;4.97;;;;;;;;;;5110416;28;20104;-61
2023/11/24 09:45:14;;;;;;;23.17;3.35;;;;;;;;;;5112161;28;20088;-60
2023/11/24 09:47:51;;;;;;;35.15;5.13;;;;;;;;;;5107145;28;20100;-60
2023/11/24 09:50:24;;;;;;;17.90;3.80;;;;;;;;;;5104570;28;20448;-60
2023/11/24 09:52:54;;;;;;;20.00;3.07;;;;;;;;;;5111781;28;20194;-60
2023/11/24 09:55:21;;;;;;;23.70;4.25;;;;;;;;;;5111067;28;20761;-60
2023/11/24 09:57:49;;;;;;;22.95;3.15;;;;;;;;;;5111449;28;20044;-60
2023/11/24 10:00:17;;;;;;;26.98;3.83;;;;;;;;;;5107957;28;20080;-60
2023/11/24 10:02:45;;;;;;;20.08;4.53;;;;;;;;;;5111112;28;20526;-60
2023/11/24 10:05:12;;;;;;;24.27;4.30;;;;;;;;;;5111853;28;20031;-61
2023/11/24 10:07:40;;;;;;;24.95;3.92;;;;;;;;;;5088922;28;20047;-60
2023/11/24 10:10:06;;;;;;;22.05;3.95;;;;;;;;;;5093212;28;20437;-60
2023/11/24 10:12:35;;;;;;;19.95;3.42;;;;;;;;;;5110675;28;20387;-61
2023/11/24 10:15:01;;;;;;;18.45;2.83;;;;;;;;;;5110837;28;20386;-60
2023/11/24 10:17:32;;;;;;;17.63;2.67;;;;;;;;;;5111829;28;20077;-60
2023/11/24 10:19:59;;;;;;;15.48;2.40;;;;;;;;;;5111578;28;20437;-60
2023/11/24 10:22:27;;;;;;;15.77;3.42;;;;;;;;;;5110756;28;20376;-61
2023/11/24 10:24:57;;;;;;;19.60;2.13;;;;;;;;;;5109080;28;20044;-60
2023/11/24 10:27:23;;;;;;;14.93;2.08;;;;;;;;;;5100252;28;20087;-61
2023/11/24 10:29:50;;;;;;;14.65;3.65;;;;;;;;;;5092118;28;20459;-60
2023/11/24 10:32:18;;;;;;;18.42;2.90;;;;;;;;;;5097078;28;20113;-60
2023/11/24 10:34:44;;;;;;;25.88;3.22;;;;;;;;;;5093025;28;20104;-60
2023/11/24 10:37:12;;;;;;;10.75;2.47;;;;;;;;;;5093959;28;20126;-60
2023/11/24 10:39:44;;;;;;;13.70;2.00;;;;;;;;;;5100054;28;20114;-60
2023/11/24 10:42:10;;;;;;;13.68;2.15;;;;;;;;;;5111099;28;20403;-60
2023/11/24 10:44:43;;;;;;;15.32;2.10;;;;;;;;;;5096451;28;20378;-60
2023/11/24 10:47:17;;;;;;;10.02;2.22;;;;;;;;;;5108915;28;20126;-60
2023/11/24 10:49:49;;;;;;;22.10;2.80;;;;;;;;;;5107236;28;20177;-60
2023/11/24 10:52:23;;;;;;;9.40;1.95;;;;;;;;;;5104631;28;20039;-61
2023/11/24 10:54:51;;;;;;;18.40;3.15;;;;;;;;;;5099163;28;20460;-60
2023/11/24 10:57:18;;;;;;;16.75;2.65;;;;;;;;;;5107675;28;20035;-60
2023/11/24 10:59:45;;;;;;;23.33;2.55;;;;;;;;;;5096947;28;20047;-60
2023/11/24 11:02:13;;;;;;;18.67;3.22;;;;;;;;;;5109663;28;20152;-60
2023/11/24 11:04:43;;;;;;;24.02;3.75;;;;;;;;;;5110171;28;20043;-60
2023/11/24 11:07:27;;;;;;;13.80;2.55;;;;;;;;;;5108570;28;20055;-60
2023/11/24 11:09:58;;;;;;;17.35;2.72;;;;;;;;;;5104205;28;20506;-60
2023/11/24 11:12:31;;;;;;;13.75;3.13;;;;;;;;;;5091615;28;20100;-60
2023/11/24 11:14:57;;;;;;;16.88;2.65;;;;;;;;;;5111002;28;20043;-60
2023/11/24 11:17:26;;;;;;;14.18;1.88;;;;;;;;;;5105754;28;20043;-61
2023/11/24 11:20:12;;;;;;;12.35;2.17;;;;;;;;;;5100654;28;20047;-62
2023/11/24 11:22:40;;;;;;;18.05;2.08;;;;;;;;;;5101469;28;20159;-64
2023/11/24 11:25:32;;;;;;;12.57;2.83;;;;;;;;;;5108884;28;20388;-62
2023/11/24 11:28:17;;;;;;;15.75;3.38;;;;;;;;;;5098876;28;20197;-62
2023/11/24 11:30:44;;;;;;;13.35;2.38;;;;;;;;;;5101749;28;20050;-62
2023/11/24 11:33:10;;;;;;;14.60;2.78;;;;;;;;;;5100164;28;20048;-61
2023/11/24 11:35:37;;;;;;;15.63;2.83;;;;;;;;;;5102775;28;20050;-62
2023/11/24 11:38:04;;;;;;;10.50;2.47;;;;;;;;;;5092207;28;20455;-62
2023/11/24 11:40:33;;;;;;;18.08;2.85;;;;;;;;;;5100448;28;20048;-61
2023/11/24 11:43:05;;;;;;;14.98;1.90;;;;;;;;;;5113240;28;20058;-61
2023/11/24 11:45:32;;;;;;;11.18;2.10;;;;;;;;;;5114460;28;20091;-62
2023/11/24 11:48:09;;;;;;;14.32;2.50;;;;;;;;;;5095008;28;20455;-61
2023/11/24 11:50:36;;;;;;;14.35;3.22;;;;;;;;;;5104425;28;20514;-62
2023/11/24 11:53:03;;;;;;;14.35;2.10;;;;;;;;;;5100677;28;20055;-62
2023/11/24 11:55:29;;;;;;;15.00;3.03;;;;;;;;;;5103564;28;20032;-62
2023/11/24 11:58:00;;;;;;;14.98;2.88;;;;;;;;;;5102096;28;20428;-62
2023/11/24 12:00:30;;;;;;;17.95;2.33;;;;;;;;;;5103168;28;20046;-62
2023/11/24 12:02:57;;;;;;;15.27;2.17;;;;;;;;;;5103495;28;20040;-61
2023/11/24 12:05:24;;;;;;;12.68;1.98;;;;;;;;;;5099706;28;20539;-61
2023/11/24 12:07:55;;;;;;;21.50;3.28;;;;;;;;;;5080089;27;20423;-61
2023/11/24 12:10:21;;;;;;;19.40;3.17;;;;;;;;;;5081875;28;20059;-61
2023/11/24 12:12:48;;;;;;;32.58;3.53;;;;;;;;;;5099278;27;20146;-61
2023/11/24 12:15:17;;;;;;;14.30;2.17;;;;;;;;;;5091864;28;20052;-61
2023/11/24 12:17:47;;;;;;;13.80;2.35;;;;;;;;;;5095825;27;20044;-61
2023/11/24 12:20:14;;;;;;;15.02;2.30;;;;;;;;;;5098260;27;20520;-61
2023/11/24 12:22:42;;;;;;;16.33;2.20;;;;;;;;;;5077718;28;20047;-61
2023/11/24 12:25:10;;;;;;;20.33;4.10;;;;;;;;;;5093148;28;20122;-61
2023/11/24 12:27:37;;;;;;;17.85;3.38;;;;;;;;;;5095224;28;20142;-62
2023/11/24 12:30:04;;;;;;;21.02;3.25;;;;;;;;;;5094519;27;20348;-61
2023/11/24 12:32:33;;;;;;;17.25;3.28;;;;;;;;;;5106899;28;20063;-61
2023/11/24 12:35:00;;;;;;;16.70;2.95;;;;;;;;;;5113529;28;20131;-62
2023/11/24 12:37:29;;;;;;;18.88;2.78;;;;;;;;;;5106135;28;20119;-61
2023/11/24 12:39:56;;;;;;;18.02;3.92;;;;;;;;;;5109072;27;20496;-61
2023/11/24 12:42:22;;;;;;;23.48;3.53;;;;;;;;;;5112054;28;20085;-61
2023/11/24 12:44:52;;;;;;;11.32;1.52;;;;;;;;;;5095182;28;20048;-61
2023/11/24 12:47:24;;;;;;;15.02;1.60;;;;;;;;;;5113326;28;20391;-61
2023/11/24 12:50:01;;;;;;;12.60;1.83;;;;;;;;;;5111491;27;20054;-61
2023/11/24 12:52:31;;;;;;;19.20;2.30;;;;;;;;;;5094807;28;20062;-61
2023/11/24 12:54:58;;;;;;;15.02;2.58;;;;;;;;;;5113146;28;20043;-60
2023/11/24 12:57:24;;;;;;;15.48;2.88;;;;;;;;;;5106168;27;20036;-61
2023/11/24 12:59:51;;;;;;;14.13;2.75;;;;;;;;;;5108774;28;20126;-61
2023/11/24 13:02:19;;;;;;;17.30;2.35;;;;;;;;;;5106377;28;20419;-61
2023/11/24 13:04:48;;;;;;;19.98;3.05;;;;;;;;;;5110537;27;20067;-61
2023/11/24 13:07:14;;;;;;;21.00;5.55;;;;;;;;;;5105379;28;20105;-61
2023/11/24 13:09:40;;;;;;;15.77;2.22;;;;;;;;;;5112628;28;20047;-61
2023/11/24 13:12:09;;;;;;;10.40;1.60;;;;;;;;;;5109439;28;20087;-61
2023/11/24 13:14:35;;;;;;;4.95;1.10;;;;;;;;;;5107206;28;20039;-61
2023/11/24 13:17:03;;;;;;;7.72;1.25;;;;;;;;;;5112451;28;20092;-61
2023/11/24 13:19:30;;;;;;;10.52;1.20;;;;;;;;;;5102133;28;20051;-61
2023/11/24 13:21:57;;;;;;;16.00;2.05;;;;;;;;;;5101801;28;20111;-61
2023/11/24 13:24:24;;;;;;;19.83;2.90;;;;;;;;;;5102592;28;20130;-61
2023/11/24 13:26:50;;;;;;;13.70;2.40;;;;;;;;;;5111824;28;20160;-61
2023/11/24 13:29:16;;;;;;;14.57;2.30;;;;;;;;;;5110089;27;20490;-61
2023/11/24 13:31:46;;;;;;;14.43;2.78;;;;;;;;;;5097531;28;20048;-61
2023/11/24 13:34:14;;;;;;;15.75;2.25;;;;;;;;;;5098131;28;20051;-61
2023/11/24 13:36:43;;;;;;;12.45;2.20;;;;;;;;;;5112199;28;20181;-61
2023/11/24 13:39:13;;;;;;;14.57;2.67;;;;;;;;;;5110548;28;20182;-61
2023/11/24 13:41:42;;;;;;;17.35;2.60;;;;;;;;;;5108817;28;20147;-61
2023/11/24 13:44:11;;;;;;;16.23;3.22;;;;;;;;;;5091506;28;20070;-61
2023/11/24 13:46:40;;;;;;;15.85;2.30;;;;;;;;;;5111390;28;20126;-61
2023/11/24 13:49:13;;;;;;;20.02;3.35;;;;;;;;;;5101214;28;20126;-61
2023/11/24 13:51:42;;;;;;;18.75;3.78;;;;;;;;;;5104291;28;20076;-61
2023/11/24 13:54:12;;;;;;;10.85;1.83;;;;;;;;;;5110934;28;20039;-61
2023/11/24 13:56:41;;;;;;;5.95;0.95;;;;;;;;;;5112079;28;20036;-61
2023/11/24 13:59:14;;;;;;;15.40;1.60;;;;;;;;;;5110915;28;20039;-61
2023/11/24 14:01:41;;;;;;;14.35;1.50;;;;;;;;;;5111180;28;20066;-61
2023/11/24 14:04:11;;;;;;;6.43;1.55;;;;;;;;;;5110665;28;20449;-61
2023/11/24 14:06:38;;;;;;;10.10;1.80;;;;;;;;;;5110748;28;20163;-61
2023/11/24 14:09:09;;;;;;;17.88;2.30;;;;;;;;;;5110144;28;20495;-61
2023/11/24 14:11:36;;;;;;;20.23;3.40;;;;;;;;;;5105487;28;20047;-61
2023/11/24 14:14:02;;;;;;;11.18;1.48;;;;;;;;;;5110737;28;20044;-61
2023/11/24 14:16:29;;;;;;;14.15;1.58;;;;;;;;;;5107583;28;20048;-61
2023/11/24 14:18:55;;;;;;;17.33;2.92;;;;;;;;;;5100734;27;20044;-61
2023/11/24 14:21:21;;;;;;;18.70;2.78;;;;;;;;;;5104649;27;20461;-61
2023/11/24 14:23:47;;;;;;;20.33;3.35;;;;;;;;;;5100181;28;20051;-61
2023/11/24 14:26:14;;;;;;;17.98;3.50;;;;;;;;;;5097025;28;20437;-61
2023/11/24 14:28:41;;;;;;;34.42;4.47;;;;;;;;;;5079639;28;20108;-61
2023/11/24 14:31:07;;;;;;;25.50;5.10;;;;;;;;;;5100673;28;20035;-61